sensor_id;sensor_type;location;lat;lon;timestamp;temperature;humidity
21267;DHT22;10791;53.108;18.326;2023-04-06T00:03:20;0.60;99.90
21267;DHT22;10791;53.108;18.326;2023-04-06T00:08:23;0.70;99.90
21267;DHT22;10791;53.108;18.326;2023-04-06T00:13:26;0.80;99.90
21267;DHT22;10791;53.108;18.326;2023-04-06T00:18:29;0.80;99.90
21267;DHT22;10791;53.108;18.326;2023-04-06T00:23:33;0.90;99.90
21267;DHT22;10791;53.108;18.326;2023-04-06T00:28:37;0.80;99.90
21267;DHT22;10791;53.108;18.326;2023-04-06T00:33:40;0.80;99.90
21267;DHT22;10791;53.108;18.326;2023-04-06T00:38:43;0.80;99.90
21267;DHT22;10791;53.108;18.326;2023-04-06T00:43:46;0.90;99.90
21267;DHT22;10791;53.108;18.326;2023-04-06T00:48:50;0.90;99.90
21267;DHT22;10791;53.108;18.326;2023-04-06T00:53:53;0.90;99.90
21267;DHT22;10791;53.108;18.326;2023-04-06T00:58:57;0.90;99.90
21267;DHT22;10791;53.108;18.326;2023-04-06T01:04:01;0.90;99.90
21267;DHT22;10791;53.108;18.326;2023-04-06T01:09:06;1.00;99.90
21267;DHT22;10791;53.108;18.326;2023-04-06T01:14:09;1.00;99.90
21267;DHT22;10791;53.108;18.326;2023-04-06T01:19:13;1.00;99.90
21267;DHT22;10791;53.108;18.326;2023-04-06T01:24:16;1.00;99.90
21267;DHT22;10791;53.108;18.326;2023-04-06T01:29:20;1.00;99.90
21267;DHT22;10791;53.108;18.326;2023-04-06T01:34:23;1.00;99.90
21267;DHT22;10791;53.108;18.326;2023-04-06T01:39:26;1.00;99.90
21267;DHT22;10791;53.108;18.326;2023-04-06T01:44:30;1.00;99.90
21267;DHT22;10791;53.108;18.326;2023-04-06T01:49:33;1.00;99.90
21267;DHT22;10791;53.108;18.326;2023-04-06T01:54:36;1.00;99.90
21267;DHT22;10791;53.108;18.326;2023-04-06T01:59:40;1.00;99.90
21267;DHT22;10791;53.108;18.326;2023-04-06T02:04:43;1.00;99.90
21267;DHT22;10791;53.108;18.326;2023-04-06T02:09:46;1.00;99.90
21267;DHT22;10791;53.108;18.326;2023-04-06T02:14:49;1.00;99.90
21267;DHT22;10791;53.108;18.326;2023-04-06T02:19:53;1.00;99.90
21267;DHT22;10791;53.108;18.326;2023-04-06T02:24:56;1.00;99.90
21267;DHT22;10791;53.108;18.326;2023-04-06T02:29:59;0.90;99.90
21267;DHT22;10791;53.108;18.326;2023-04-06T02:35:02;0.90;99.90
21267;DHT22;10791;53.108;18.326;2023-04-06T02:40:06;0.90;99.90
21267;DHT22;10791;53.108;18.326;2023-04-06T02:45:09;0.90;99.90
21267;DHT22;10791;53.108;18.326;2023-04-06T02:50:12;1.00;99.90
21267;DHT22;10791;53.108;18.326;2023-04-06T02:55:16;1.00;99.90
21267;DHT22;10791;53.108;18.326;2023-04-06T03:00:20;1.00;99.90
21267;DHT22;10791;53.108;18.326;2023-04-06T03:05:23;1.00;99.90
21267;DHT22;10791;53.108;18.326;2023-04-06T03:10:27;0.90;99.90
21267;DHT22;10791;53.108;18.326;2023-04-06T03:15:30;0.90;99.90
21267;DHT22;10791;53.108;18.326;2023-04-06T03:20:33;0.90;99.90
21267;DHT22;10791;53.108;18.326;2023-04-06T03:25:37;0.90;99.90
21267;DHT22;10791;53.108;18.326;2023-04-06T03:30:42;1.00;99.90
21267;DHT22;10791;53.108;18.326;2023-04-06T03:35:45;0.90;99.90
21267;DHT22;10791;53.108;18.326;2023-04-06T03:40:48;0.90;99.90
21267;DHT22;10791;53.108;18.326;2023-04-06T03:45:52;0.90;99.90
21267;DHT22;10791;53.108;18.326;2023-04-06T03:50:55;0.90;99.90
21267;DHT22;10791;53.108;18.326;2023-04-06T03:55:59;0.90;99.90
21267;DHT22;10791;53.108;18.326;2023-04-06T04:01:05;0.90;99.90
21267;DHT22;10791;53.108;18.326;2023-04-06T04:06:09;0.80;99.90
21267;DHT22;10791;53.108;18.326;2023-04-06T04:11:12;0.80;99.90
21267;DHT22;10791;53.108;18.326;2023-04-06T04:16:15;0.80;99.90
21267;DHT22;10791;53.108;18.326;2023-04-06T04:21:18;0.80;99.90
21267;DHT22;10791;53.108;18.326;2023-04-06T04:26:22;0.80;99.90
21267;DHT22;10791;53.108;18.326;2023-04-06T04:31:25;0.90;99.90
21267;DHT22;10791;53.108;18.326;2023-04-06T04:36:28;0.90;99.90
21267;DHT22;10791;53.108;18.326;2023-04-06T04:41:31;1.00;99.90
21267;DHT22;10791;53.108;18.326;2023-04-06T04:46:35;1.00;99.90
21267;DHT22;10791;53.108;18.326;2023-04-06T04:51:38;1.10;99.90
21267;DHT22;10791;53.108;18.326;2023-04-06T04:56:41;1.10;99.90
21267;DHT22;10791;53.108;18.326;2023-04-06T05:01:44;1.10;99.90
21267;DHT22;10791;53.108;18.326;2023-04-06T05:07:07;1.20;99.90
21267;DHT22;10791;53.108;18.326;2023-04-06T05:12:11;1.30;99.90
21267;DHT22;10791;53.108;18.326;2023-04-06T05:17:15;1.30;99.90
21267;DHT22;10791;53.108;18.326;2023-04-06T05:22:18;1.30;99.90
21267;DHT22;10791;53.108;18.326;2023-04-06T05:27:21;1.40;99.90
21267;DHT22;10791;53.108;18.326;2023-04-06T05:32:25;1.50;99.90
21267;DHT22;10791;53.108;18.326;2023-04-06T05:37:28;1.60;99.90
21267;DHT22;10791;53.108;18.326;2023-04-06T05:42:38;1.70;99.90
21267;DHT22;10791;53.108;18.326;2023-04-06T05:47:41;1.80;99.90
21267;DHT22;10791;53.108;18.326;2023-04-06T05:52:44;1.80;99.90
21267;DHT22;10791;53.108;18.326;2023-04-06T05:57:49;2.00;99.90
21267;DHT22;10791;53.108;18.326;2023-04-06T06:02:52;2.10;99.90
21267;DHT22;10791;53.108;18.326;2023-04-06T06:07:56;2.20;99.90
21267;DHT22;10791;53.108;18.326;2023-04-06T06:12:59;2.30;99.90
21267;DHT22;10791;53.108;18.326;2023-04-06T06:18:02;2.50;99.90
21267;DHT22;10791;53.108;18.326;2023-04-06T06:23:06;2.70;99.90
21267;DHT22;10791;53.108;18.326;2023-04-06T06:28:09;2.80;99.90
21267;DHT22;10791;53.108;18.326;2023-04-06T06:33:13;3.10;99.90
21267;DHT22;10791;53.108;18.326;2023-04-06T06:38:16;3.30;99.90
21267;DHT22;10791;53.108;18.326;2023-04-06T06:43:22;3.30;99.90
21267;DHT22;10791;53.108;18.326;2023-04-06T06:48:26;3.10;99.90
21267;DHT22;10791;53.108;18.326;2023-04-06T06:53:29;3.20;99.90
21267;DHT22;10791;53.108;18.326;2023-04-06T06:58:33;3.30;99.90
21267;DHT22;10791;53.108;18.326;2023-04-06T07:03:36;3.80;99.90
21267;DHT22;10791;53.108;18.326;2023-04-06T07:08:39;3.80;99.90
21267;DHT22;10791;53.108;18.326;2023-04-06T07:13:43;4.00;99.90
21267;DHT22;10791;53.108;18.326;2023-04-06T07:18:46;4.00;99.90
21267;DHT22;10791;53.108;18.326;2023-04-06T07:23:49;4.30;99.90
21267;DHT22;10791;53.108;18.326;2023-04-06T07:28:56;4.70;99.90
21267;DHT22;10791;53.108;18.326;2023-04-06T07:34:04;4.90;97.10
21267;DHT22;10791;53.108;18.326;2023-04-06T07:39:08;4.80;94.60
21267;DHT22;10791;53.108;18.326;2023-04-06T07:44:11;4.90;93.30
21267;DHT22;10791;53.108;18.326;2023-04-06T07:49:15;4.80;93.10
21267;DHT22;10791;53.108;18.326;2023-04-06T07:54:19;4.90;94.40
21267;DHT22;10791;53.108;18.326;2023-04-06T07:59:22;5.10;93.20
21267;DHT22;10791;53.108;18.326;2023-04-06T08:04:25;5.10;91.70
21267;DHT22;10791;53.108;18.326;2023-04-06T08:09:29;5.40;90.30
21267;DHT22;10791;53.108;18.326;2023-04-06T08:14:33;5.40;90.80
21267;DHT22;10791;53.108;18.326;2023-04-06T08:19:36;5.40;90.40
21267;DHT22;10791;53.108;18.326;2023-04-06T08:24:40;5.30;90.50
21267;DHT22;10791;53.108;18.326;2023-04-06T08:29:43;5.40;90.80
21267;DHT22;10791;53.108;18.326;2023-04-06T08:34:46;5.60;90.40
21267;DHT22;10791;53.108;18.326;2023-04-06T08:39:50;5.30;87.00
21267;DHT22;10791;53.108;18.326;2023-04-06T08:44:54;5.20;88.00
21267;DHT22;10791;53.108;18.326;2023-04-06T08:49:58;5.10;90.00
21267;DHT22;10791;53.108;18.326;2023-04-06T08:55:04;5.00;87.80
21267;DHT22;10791;53.108;18.326;2023-04-06T09:00:10;5.30;89.20
21267;DHT22;10791;53.108;18.326;2023-04-06T09:05:13;5.90;86.00
21267;DHT22;10791;53.108;18.326;2023-04-06T09:10:17;5.90;82.20
21267;DHT22;10791;53.108;18.326;2023-04-06T09:15:21;5.90;85.40
21267;DHT22;10791;53.108;18.326;2023-04-06T09:20:26;6.00;84.80
21267;DHT22;10791;53.108;18.326;2023-04-06T09:25:31;6.00;86.10
21267;DHT22;10791;53.108;18.326;2023-04-06T09:30:35;6.30;87.10
21267;DHT22;10791;53.108;18.326;2023-04-06T09:35:38;6.30;86.00
21267;DHT22;10791;53.108;18.326;2023-04-06T09:40:51;6.40;86.40
21267;DHT22;10791;53.108;18.326;2023-04-06T09:45:58;6.30;82.00
21267;DHT22;10791;53.108;18.326;2023-04-06T09:51:04;5.90;84.60
21267;DHT22;10791;53.108;18.326;2023-04-06T09:56:11;5.80;84.20
21267;DHT22;10791;53.108;18.326;2023-04-06T10:01:18;6.00;84.90
21267;DHT22;10791;53.108;18.326;2023-04-06T10:06:24;6.10;84.30
21267;DHT22;10791;53.108;18.326;2023-04-06T10:11:32;5.90;85.70
21267;DHT22;10791;53.108;18.326;2023-04-06T10:16:37;5.80;83.70
21267;DHT22;10791;53.108;18.326;2023-04-06T10:21:41;5.60;83.80
21267;DHT22;10791;53.108;18.326;2023-04-06T10:27:06;5.90;87.90
21267;DHT22;10791;53.108;18.326;2023-04-06T10:32:10;6.40;85.80
21267;DHT22;10791;53.108;18.326;2023-04-06T10:37:15;6.30;81.20
21267;DHT22;10791;53.108;18.326;2023-04-06T10:42:20;6.20;84.40
21267;DHT22;10791;53.108;18.326;2023-04-06T10:47:26;6.10;84.30
21267;DHT22;10791;53.108;18.326;2023-04-06T10:52:29;6.40;85.10
21267;DHT22;10791;53.108;18.326;2023-04-06T10:57:33;6.90;84.90
21267;DHT22;10791;53.108;18.326;2023-04-06T11:02:37;6.90;83.30
21267;DHT22;10791;53.108;18.326;2023-04-06T11:07:41;6.50;81.80
21267;DHT22;10791;53.108;18.326;2023-04-06T11:12:44;6.50;84.10
21267;DHT22;10791;53.108;18.326;2023-04-06T11:17:48;7.10;82.80
21267;DHT22;10791;53.108;18.326;2023-04-06T11:22:52;7.50;79.30
21267;DHT22;10791;53.108;18.326;2023-04-06T11:27:56;7.60;80.80
21267;DHT22;10791;53.108;18.326;2023-04-06T11:33:00;7.90;81.20
21267;DHT22;10791;53.108;18.326;2023-04-06T11:38:05;7.80;78.90
21267;DHT22;10791;53.108;18.326;2023-04-06T11:43:11;7.60;80.90
21267;DHT22;10791;53.108;18.326;2023-04-06T11:48:19;7.50;80.30
21267;DHT22;10791;53.108;18.326;2023-04-06T11:53:22;7.40;79.50
21267;DHT22;10791;53.108;18.326;2023-04-06T11:58:26;7.50;81.30
21267;DHT22;10791;53.108;18.326;2023-04-06T12:03:30;7.70;81.40
21267;DHT22;10791;53.108;18.326;2023-04-06T12:08:34;7.90;81.30
21267;DHT22;10791;53.108;18.326;2023-04-06T12:13:38;7.90;80.60
21267;DHT22;10791;53.108;18.326;2023-04-06T12:18:43;7.90;79.00
21267;DHT22;10791;53.108;18.326;2023-04-06T12:23:46;8.10;78.00
21267;DHT22;10791;53.108;18.326;2023-04-06T12:28:50;8.00;79.30
21267;DHT22;10791;53.108;18.326;2023-04-06T12:33:53;8.20;78.00
21267;DHT22;10791;53.108;18.326;2023-04-06T12:38:56;8.00;80.00
21267;DHT22;10791;53.108;18.326;2023-04-06T12:44:00;8.00;81.30
21267;DHT22;10791;53.108;18.326;2023-04-06T12:49:03;8.30;79.70
21267;DHT22;10791;53.108;18.326;2023-04-06T12:54:07;8.40;77.30
21267;DHT22;10791;53.108;18.326;2023-04-06T12:59:10;8.10;76.80
21267;DHT22;10791;53.108;18.326;2023-04-06T13:04:13;7.90;79.10
21267;DHT22;10791;53.108;18.326;2023-04-06T13:09:16;8.10;78.50
21267;DHT22;10791;53.108;18.326;2023-04-06T13:14:20;8.10;76.70
21267;DHT22;10791;53.108;18.326;2023-04-06T13:19:23;7.80;77.80
21267;DHT22;10791;53.108;18.326;2023-04-06T13:24:28;8.00;80.20
21267;DHT22;10791;53.108;18.326;2023-04-06T13:29:31;8.10;82.10
21267;DHT22;10791;53.108;18.326;2023-04-06T13:34:35;8.00;79.70
21267;DHT22;10791;53.108;18.326;2023-04-06T13:39:39;8.20;83.00
21267;DHT22;10791;53.108;18.326;2023-04-06T13:44:42;8.20;80.90
21267;DHT22;10791;53.108;18.326;2023-04-06T13:49:45;8.20;81.10
21267;DHT22;10791;53.108;18.326;2023-04-06T13:54:49;8.00;79.30
21267;DHT22;10791;53.108;18.326;2023-04-06T13:59:53;8.10;82.00
21267;DHT22;10791;53.108;18.326;2023-04-06T14:04:56;8.20;81.90
21267;DHT22;10791;53.108;18.326;2023-04-06T14:10:00;8.20;81.70
21267;DHT22;10791;53.108;18.326;2023-04-06T14:15:04;8.20;81.80
21267;DHT22;10791;53.108;18.326;2023-04-06T14:20:08;8.00;81.50
21267;DHT22;10791;53.108;18.326;2023-04-06T14:25:16;7.90;84.40
21267;DHT22;10791;53.108;18.326;2023-04-06T14:30:20;7.70;85.00
21267;DHT22;10791;53.108;18.326;2023-04-06T14:35:24;7.40;84.60
21267;DHT22;10791;53.108;18.326;2023-04-06T14:40:28;7.30;87.20
21267;DHT22;10791;53.108;18.326;2023-04-06T14:45:33;7.30;84.70
21267;DHT22;10791;53.108;18.326;2023-04-06T14:50:41;7.10;86.70
21267;DHT22;10791;53.108;18.326;2023-04-06T14:55:49;7.30;87.50
21267;DHT22;10791;53.108;18.326;2023-04-06T15:00:56;7.20;86.80
21267;DHT22;10791;53.108;18.326;2023-04-06T15:06:00;7.20;87.50
21267;DHT22;10791;53.108;18.326;2023-04-06T15:11:04;7.10;89.30
21267;DHT22;10791;53.108;18.326;2023-04-06T15:16:07;6.90;90.10
21267;DHT22;10791;53.108;18.326;2023-04-06T15:21:11;6.80;90.40
21267;DHT22;10791;53.108;18.326;2023-04-06T15:26:14;6.60;91.70
21267;DHT22;10791;53.108;18.326;2023-04-06T15:31:19;6.50;92.20
21267;DHT22;10791;53.108;18.326;2023-04-06T15:36:39;6.30;93.50
21267;DHT22;10791;53.108;18.326;2023-04-06T15:41:43;6.00;95.00
21267;DHT22;10791;53.108;18.326;2023-04-06T15:46:48;5.70;97.20
21267;DHT22;10791;53.108;18.326;2023-04-06T15:51:51;5.60;98.90
21267;DHT22;10791;53.108;18.326;2023-04-06T15:56:55;5.10;99.90
21267;DHT22;10791;53.108;18.326;2023-04-06T16:01:59;4.90;99.90
21267;DHT22;10791;53.108;18.326;2023-04-06T16:07:03;4.60;99.90
21267;DHT22;10791;53.108;18.326;2023-04-06T16:12:06;4.50;99.90
21267;DHT22;10791;53.108;18.326;2023-04-06T16:17:12;4.40;99.90
21267;DHT22;10791;53.108;18.326;2023-04-06T16:22:15;4.40;99.90
21267;DHT22;10791;53.108;18.326;2023-04-06T16:27:18;4.30;99.90
21267;DHT22;10791;53.108;18.326;2023-04-06T16:32:22;4.30;99.90
21267;DHT22;10791;53.108;18.326;2023-04-06T16:37:26;4.10;99.90
21267;DHT22;10791;53.108;18.326;2023-04-06T16:42:31;4.00;99.90
21267;DHT22;10791;53.108;18.326;2023-04-06T16:47:35;4.00;99.90
21267;DHT22;10791;53.108;18.326;2023-04-06T16:52:38;3.90;99.90
21267;DHT22;10791;53.108;18.326;2023-04-06T16:57:43;3.90;99.90
21267;DHT22;10791;53.108;18.326;2023-04-06T17:02:47;3.90;99.90
21267;DHT22;10791;53.108;18.326;2023-04-06T17:07:51;3.90;99.90
21267;DHT22;10791;53.108;18.326;2023-04-06T17:12:55;3.80;99.90
21267;DHT22;10791;53.108;18.326;2023-04-06T17:17:58;3.80;99.90
21267;DHT22;10791;53.108;18.326;2023-04-06T17:23:02;3.80;99.90
21267;DHT22;10791;53.108;18.326;2023-04-06T17:28:06;3.80;99.90
21267;DHT22;10791;53.108;18.326;2023-04-06T17:33:09;3.80;99.90
21267;DHT22;10791;53.108;18.326;2023-04-06T17:38:14;3.80;99.90
21267;DHT22;10791;53.108;18.326;2023-04-06T17:43:18;3.80;99.90
21267;DHT22;10791;53.108;18.326;2023-04-06T17:48:23;3.80;99.90
21267;DHT22;10791;53.108;18.326;2023-04-06T17:53:27;3.80;99.90
21267;DHT22;10791;53.108;18.326;2023-04-06T17:58:36;3.70;99.90
21267;DHT22;10791;53.108;18.326;2023-04-06T18:03:39;3.70;99.90
21267;DHT22;10791;53.108;18.326;2023-04-06T18:08:43;3.70;99.90
21267;DHT22;10791;53.108;18.326;2023-04-06T18:13:47;3.80;99.90
21267;DHT22;10791;53.108;18.326;2023-04-06T18:18:54;3.70;99.90
21267;DHT22;10791;53.108;18.326;2023-04-06T18:24:02;3.60;99.90
21267;DHT22;10791;53.108;18.326;2023-04-06T18:29:09;3.70;99.90
21267;DHT22;10791;53.108;18.326;2023-04-06T18:34:14;3.70;99.90
21267;DHT22;10791;53.108;18.326;2023-04-06T18:39:18;3.70;99.90
21267;DHT22;10791;53.108;18.326;2023-04-06T18:44:23;3.70;99.90
21267;DHT22;10791;53.108;18.326;2023-04-06T18:49:34;3.60;99.90
21267;DHT22;10791;53.108;18.326;2023-04-06T18:54:38;3.50;99.90
21267;DHT22;10791;53.108;18.326;2023-04-06T18:59:42;3.40;99.90
21267;DHT22;10791;53.108;18.326;2023-04-06T19:04:46;3.30;99.90
21267;DHT22;10791;53.108;18.326;2023-04-06T19:09:54;3.30;99.90
21267;DHT22;10791;53.108;18.326;2023-04-06T19:14:58;3.30;99.90
21267;DHT22;10791;53.108;18.326;2023-04-06T19:20:03;3.20;99.90
21267;DHT22;10791;53.108;18.326;2023-04-06T19:25:07;3.20;99.90
21267;DHT22;10791;53.108;18.326;2023-04-06T19:30:11;3.10;99.90
21267;DHT22;10791;53.108;18.326;2023-04-06T19:35:14;3.00;99.90
21267;DHT22;10791;53.108;18.326;2023-04-06T19:40:18;3.00;99.90
21267;DHT22;10791;53.108;18.326;2023-04-06T19:45:23;3.10;99.90
21267;DHT22;10791;53.108;18.326;2023-04-06T19:50:27;3.10;99.90
21267;DHT22;10791;53.108;18.326;2023-04-06T19:55:35;3.10;99.90
21267;DHT22;10791;53.108;18.326;2023-04-06T20:00:39;3.10;99.90
21267;DHT22;10791;53.108;18.326;2023-04-06T20:05:42;3.10;99.90
21267;DHT22;10791;53.108;18.326;2023-04-06T20:10:46;3.10;99.90
21267;DHT22;10791;53.108;18.326;2023-04-06T20:15:50;3.10;99.90
21267;DHT22;10791;53.108;18.326;2023-04-06T20:20:55;3.10;99.90
21267;DHT22;10791;53.108;18.326;2023-04-06T20:26:00;3.10;99.90
21267;DHT22;10791;53.108;18.326;2023-04-06T20:31:03;3.10;99.90
21267;DHT22;10791;53.108;18.326;2023-04-06T20:36:07;3.10;99.90
21267;DHT22;10791;53.108;18.326;2023-04-06T20:41:13;3.00;99.90
21267;DHT22;10791;53.108;18.326;2023-04-06T20:46:17;3.00;99.90
21267;DHT22;10791;53.108;18.326;2023-04-06T20:51:21;3.00;99.90
21267;DHT22;10791;53.108;18.326;2023-04-06T20:56:27;2.90;99.90
21267;DHT22;10791;53.108;18.326;2023-04-06T21:01:31;2.90;99.90
21267;DHT22;10791;53.108;18.326;2023-04-06T21:06:35;2.80;99.90
21267;DHT22;10791;53.108;18.326;2023-04-06T21:11:39;2.90;99.90
21267;DHT22;10791;53.108;18.326;2023-04-06T21:16:42;2.70;99.90
21267;DHT22;10791;53.108;18.326;2023-04-06T21:21:45;2.70;99.90
21267;DHT22;10791;53.108;18.326;2023-04-06T21:26:49;2.70;99.90
21267;DHT22;10791;53.108;18.326;2023-04-06T21:31:52;2.70;99.90
21267;DHT22;10791;53.108;18.326;2023-04-06T21:36:57;2.70;99.90
21267;DHT22;10791;53.108;18.326;2023-04-06T21:42:01;2.70;99.90
21267;DHT22;10791;53.108;18.326;2023-04-06T21:47:05;2.70;99.90
21267;DHT22;10791;53.108;18.326;2023-04-06T21:52:08;2.60;99.90
21267;DHT22;10791;53.108;18.326;2023-04-06T21:57:12;2.60;99.90
21267;DHT22;10791;53.108;18.326;2023-04-06T22:02:16;2.70;99.90
21267;DHT22;10791;53.108;18.326;2023-04-06T22:07:19;2.70;99.90
21267;DHT22;10791;53.108;18.326;2023-04-06T22:12:23;2.70;99.90
21267;DHT22;10791;53.108;18.326;2023-04-06T22:17:26;2.70;99.90
21267;DHT22;10791;53.108;18.326;2023-04-06T22:22:30;2.60;99.90
21267;DHT22;10791;53.108;18.326;2023-04-06T22:27:33;2.70;99.90
21267;DHT22;10791;53.108;18.326;2023-04-06T22:32:36;2.70;99.90
21267;DHT22;10791;53.108;18.326;2023-04-06T22:37:41;2.70;99.90
21267;DHT22;10791;53.108;18.326;2023-04-06T22:42:45;2.70;99.90
21267;DHT22;10791;53.108;18.326;2023-04-06T22:47:48;2.70;99.90
21267;DHT22;10791;53.108;18.326;2023-04-06T22:52:52;2.70;99.90
21267;DHT22;10791;53.108;18.326;2023-04-06T22:57:55;2.70;99.90
21267;DHT22;10791;53.108;18.326;2023-04-06T23:02:58;2.70;99.90
21267;DHT22;10791;53.108;18.326;2023-04-06T23:08:02;2.80;99.90
21267;DHT22;10791;53.108;18.326;2023-04-06T23:13:05;2.80;99.90
21267;DHT22;10791;53.108;18.326;2023-04-06T23:18:08;2.80;99.90
21267;DHT22;10791;53.108;18.326;2023-04-06T23:23:12;2.80;99.90
21267;DHT22;10791;53.108;18.326;2023-04-06T23:28:15;2.70;99.90
21267;DHT22;10791;53.108;18.326;2023-04-06T23:33:18;2.70;99.90
21267;DHT22;10791;53.108;18.326;2023-04-06T23:38:22;2.70;99.90
21267;DHT22;10791;53.108;18.326;2023-04-06T23:43:25;2.80;99.90
21267;DHT22;10791;53.108;18.326;2023-04-06T23:48:29;2.80;99.90
21267;DHT22;10791;53.108;18.326;2023-04-06T23:53:32;2.80;99.90
21267;DHT22;10791;53.108;18.326;2023-04-06T23:58:35;2.80;99.90
